createdAt,value
2017-12-28T00:02:07.956Z,1.60
2017-12-28T00:04:33.959Z,1.50
2017-12-28T00:06:59.904Z,1.40
2017-12-28T00:09:25.882Z,1.50
2017-12-28T00:11:51.985Z,1.30
2017-12-28T00:14:17.916Z,1.55
2017-12-28T00:16:43.911Z,1.50
2017-12-28T00:19:09.867Z,1.60
2017-12-28T00:21:35.828Z,1.50
2017-12-28T00:24:02.541Z,1.90
2017-12-28T00:26:28.624Z,1.60
2017-12-28T00:28:54.595Z,1.73
2017-12-28T00:31:21.290Z,1.48
2017-12-28T00:33:47.388Z,1.40
2017-12-28T00:36:13.325Z,1.67
2017-12-28T00:38:39.262Z,1.70
2017-12-28T00:41:05.238Z,1.80
2017-12-28T00:43:31.191Z,1.73
2017-12-28T00:45:57.220Z,1.55
2017-12-28T00:48:23.164Z,1.90
2017-12-28T00:50:49.116Z,1.90
2017-12-28T00:53:15.848Z,1.75
2017-12-28T00:55:41.772Z,1.70
2017-12-28T00:58:07.739Z,1.70
2017-12-28T01:00:33.677Z,1.80
2017-12-28T01:02:59.645Z,1.90
2017-12-28T01:05:26.461Z,2.00
2017-12-28T01:07:52.411Z,1.92
2017-12-28T01:10:19.116Z,2.08
2017-12-28T01:12:45.039Z,1.67
2017-12-28T01:15:11.008Z,2.07
2017-12-28T01:17:36.939Z,2.22
2017-12-28T01:20:03.024Z,1.80
2017-12-28T01:22:29.014Z,2.17
2017-12-28T01:24:54.965Z,2.15
2017-12-28T01:27:21.064Z,2.08
2017-12-28T01:29:47.039Z,2.00
2017-12-28T01:32:13.743Z,2.08
2017-12-28T01:34:39.684Z,2.05
2017-12-28T01:37:06.503Z,2.03
2017-12-28T01:39:32.470Z,2.00
2017-12-28T01:41:58.447Z,1.83
2017-12-28T01:44:24.387Z,1.90
2017-12-28T01:46:50.332Z,2.20
2017-12-28T01:49:16.299Z,2.17
2017-12-28T01:51:42.408Z,1.95
2017-12-28T01:54:09.263Z,1.80
2017-12-28T01:56:35.203Z,1.90
2017-12-28T01:59:01.180Z,2.17
2017-12-28T02:01:27.124Z,2.03
2017-12-28T02:03:53.076Z,2.10
2017-12-28T02:06:19.160Z,2.05
2017-12-28T02:08:45.102Z,2.00
2017-12-28T02:11:11.105Z,2.10
2017-12-28T02:13:37.092Z,2.10
2017-12-28T02:16:03.779Z,2.17
2017-12-28T02:18:29.751Z,2.40
2017-12-28T02:20:55.728Z,1.73
2017-12-28T02:23:21.668Z,2.00
2017-12-28T02:25:47.753Z,1.73
2017-12-28T02:28:13.826Z,2.35
2017-12-28T02:30:39.852Z,1.77
2017-12-28T02:33:05.788Z,2.10
2017-12-28T02:35:32.507Z,2.03
2017-12-28T02:37:59.212Z,2.10
2017-12-28T02:40:25.156Z,2.00
2017-12-28T02:42:51.257Z,2.00
2017-12-28T02:45:17.190Z,2.08
2017-12-28T02:47:43.128Z,2.00
2017-12-28T02:50:09.220Z,1.80
2017-12-28T02:52:35.175Z,1.80
2017-12-28T02:55:01.127Z,2.00
2017-12-28T02:57:27.084Z,1.80
2017-12-28T02:59:53.078Z,1.95
2017-12-28T03:02:19.771Z,2.00
2017-12-28T03:04:45.699Z,1.73
2017-12-28T03:07:11.656Z,2.03
2017-12-28T03:09:38.328Z,1.95
2017-12-28T03:12:04.256Z,2.10
2017-12-28T03:14:30.219Z,2.23
2017-12-28T03:16:56.172Z,1.95
2017-12-28T03:19:22.243Z,2.00
2017-12-28T03:21:48.172Z,1.80
2017-12-28T03:24:14.144Z,2.07
2017-12-28T03:26:40.216Z,2.00
2017-12-28T03:29:06.139Z,2.00
2017-12-28T03:31:32.127Z,1.53
2017-12-28T03:33:58.072Z,1.50
2017-12-28T03:36:24.173Z,1.70
2017-12-28T03:38:50.124Z,1.80
2017-12-28T03:41:16.066Z,1.70
2017-12-28T03:43:42.802Z,1.50
2017-12-28T03:46:08.728Z,1.48
2017-12-28T03:48:34.661Z,1.50
2017-12-28T03:51:01.376Z,1.43
2017-12-28T03:53:27.309Z,1.37
2017-12-28T03:55:53.252Z,1.30
2017-12-28T03:58:19.395Z,1.33
2017-12-28T04:00:45.352Z,1.20
2017-12-28T04:03:11.284Z,1.40
2017-12-28T04:05:37.263Z,1.37
2017-12-28T04:08:03.224Z,1.55
2017-12-28T04:10:29.179Z,1.40
2017-12-28T04:12:56.059Z,1.75
2017-12-28T04:15:21.995Z,1.60
2017-12-28T04:17:48.051Z,1.80
2017-12-28T04:20:14.115Z,1.60
2017-12-28T04:22:40.063Z,1.70
2017-12-28T04:25:06.004Z,1.90
2017-12-28T04:27:31.940Z,1.70
2017-12-28T04:29:57.903Z,2.00
2017-12-28T04:32:23.840Z,1.70
2017-12-28T04:34:49.770Z,1.70
2017-12-28T04:37:15.923Z,1.50
2017-12-28T04:39:41.852Z,1.90
2017-12-28T04:42:07.788Z,1.73
2017-12-28T04:44:34.520Z,1.50
2017-12-28T04:47:00.472Z,1.70
2017-12-28T04:49:26.399Z,1.65
2017-12-28T04:51:52.525Z,1.70
2017-12-28T04:54:18.503Z,1.55
2017-12-28T04:56:44.641Z,2.00
2017-12-28T04:59:11.332Z,3.00
2017-12-28T05:01:37.306Z,1.80
2017-12-28T05:04:03.988Z,1.70
2017-12-28T05:06:30.135Z,1.65
2017-12-28T05:08:56.064Z,1.90
2017-12-28T05:11:22.009Z,2.00
2017-12-28T05:13:48.805Z,2.05
2017-12-28T05:16:14.739Z,1.92
2017-12-28T05:18:40.704Z,1.70
2017-12-28T05:21:07.388Z,2.05
2017-12-28T05:23:33.368Z,2.03
2017-12-28T05:26:00.038Z,2.40
2017-12-28T05:28:25.959Z,2.20
2017-12-28T05:30:52.103Z,2.67
2017-12-28T05:33:18.036Z,2.62
2017-12-28T05:35:43.983Z,2.20
2017-12-28T05:38:09.947Z,2.53
2017-12-28T05:40:35.882Z,2.40
2017-12-28T05:43:02.033Z,2.90
2017-12-28T05:45:27.957Z,2.45
2017-12-28T05:47:53.900Z,2.23
2017-12-28T05:50:20.744Z,2.70
2017-12-28T05:52:47.427Z,2.00
2017-12-28T05:55:13.407Z,2.17
2017-12-28T05:57:40.231Z,2.67
2017-12-28T06:00:06.184Z,2.95
2017-12-28T06:02:32.176Z,2.47
2017-12-28T06:04:58.859Z,3.37
2017-12-28T06:07:24.939Z,3.10
2017-12-28T06:09:50.866Z,3.37
2017-12-28T06:12:17.592Z,4.30
2017-12-28T06:14:43.538Z,3.83
2017-12-28T06:17:10.208Z,3.25
2017-12-28T06:19:36.923Z,3.40
2017-12-28T06:22:02.859Z,3.58
2017-12-28T06:24:28.784Z,3.53
2017-12-28T06:26:55.019Z,2.80
2017-12-28T06:29:20.954Z,2.53
2017-12-28T06:31:46.931Z,3.20
2017-12-28T06:34:13.611Z,2.83
2017-12-28T06:36:39.544Z,2.50
2017-12-28T06:39:05.643Z,3.53
2017-12-28T06:41:31.580Z,2.90
2017-12-28T06:43:57.585Z,3.00
2017-12-28T06:46:23.529Z,3.20
2017-12-28T06:48:49.511Z,3.03
2017-12-28T06:51:15.471Z,2.95
2017-12-28T06:53:41.415Z,2.97
2017-12-28T06:56:07.522Z,2.70
2017-12-28T06:58:33.588Z,2.30
2017-12-28T07:01:00.264Z,3.00
2017-12-28T07:03:27.080Z,2.97
2017-12-28T07:05:53.755Z,2.70
2017-12-28T07:08:19.715Z,3.00
2017-12-28T07:10:45.640Z,3.30
2017-12-28T07:13:12.412Z,3.10
2017-12-28T07:15:38.360Z,3.10
2017-12-28T07:18:04.324Z,3.30
2017-12-28T07:20:30.286Z,3.20
2017-12-28T07:22:56.216Z,3.58
2017-12-28T07:25:22.176Z,3.47
2017-12-28T07:27:48.117Z,4.00
2017-12-28T07:30:14.942Z,3.40
2017-12-28T07:32:40.896Z,3.55
2017-12-28T07:35:07.573Z,4.20
2017-12-28T07:37:33.684Z,3.83
2017-12-28T07:40:00.368Z,3.55
2017-12-28T07:42:26.351Z,2.80
2017-12-28T07:44:52.299Z,4.03
2017-12-28T07:47:18.251Z,3.62
2017-12-28T07:49:45.122Z,3.40
2017-12-28T07:52:11.059Z,3.20
2017-12-28T07:54:37.034Z,3.67
2017-12-28T07:57:03.960Z,4.00
2017-12-28T07:59:29.903Z,3.37
2017-12-28T08:01:56.621Z,3.30
2017-12-28T08:04:22.547Z,3.65
2017-12-28T08:06:48.475Z,4.13
2017-12-28T08:09:14.567Z,4.10
2017-12-28T08:11:40.505Z,3.45
2017-12-28T08:14:06.455Z,3.70
2017-12-28T08:16:33.227Z,3.83
2017-12-28T08:18:59.167Z,3.65
2017-12-28T08:21:25.139Z,4.00
2017-12-28T08:23:51.822Z,3.85
2017-12-28T08:26:17.968Z,4.00
2017-12-28T08:28:43.982Z,3.65
2017-12-28T08:31:09.933Z,3.60
2017-12-28T08:33:35.919Z,4.12
2017-12-28T08:36:01.851Z,4.25
2017-12-28T08:38:27.809Z,4.60
2017-12-28T08:40:54.512Z,4.55
2017-12-28T08:43:20.626Z,4.37
2017-12-28T08:45:46.561Z,4.05
2017-12-28T08:48:12.505Z,4.70
2017-12-28T08:50:38.479Z,4.30
2017-12-28T08:53:04.422Z,4.57
2017-12-28T08:55:30.427Z,4.30
2017-12-28T08:57:56.567Z,3.92
2017-12-28T09:00:22.515Z,4.00
2017-12-28T09:02:48.461Z,4.30
2017-12-28T09:05:15.338Z,4.15
2017-12-28T09:07:41.276Z,5.87
2017-12-28T09:10:07.221Z,4.63
2017-12-28T09:12:33.240Z,4.60
2017-12-28T09:14:59.339Z,4.45
2017-12-28T09:17:25.296Z,4.37
2017-12-28T09:19:51.256Z,4.40
2017-12-28T09:22:17.220Z,4.37
2017-12-28T09:24:43.252Z,4.50
2017-12-28T09:27:09.186Z,4.82
2017-12-28T09:29:35.877Z,4.90
2017-12-28T09:32:01.856Z,4.53
2017-12-28T09:34:27.793Z,5.18
2017-12-28T09:36:53.740Z,4.22
2017-12-28T09:39:19.739Z,5.23
2017-12-28T09:41:46.424Z,4.60
2017-12-28T09:44:12.535Z,5.25
2017-12-28T09:46:38.508Z,5.20
2017-12-28T09:49:04.457Z,6.80
2017-12-28T09:51:30.428Z,6.22
2017-12-28T09:53:56.368Z,5.82
2017-12-28T09:56:22.327Z,5.80
2017-12-28T09:58:48.282Z,5.75
2017-12-28T10:01:14.381Z,5.90
2017-12-28T10:03:40.340Z,5.43
2017-12-28T10:06:06.272Z,5.43
2017-12-28T10:08:32.420Z,4.93
2017-12-28T10:10:59.123Z,5.75
2017-12-28T10:13:25.074Z,5.45
2017-12-28T10:15:51.796Z,4.93
2017-12-28T10:18:17.786Z,5.25
2017-12-28T10:20:43.790Z,4.97
2017-12-28T10:23:09.727Z,4.12
2017-12-28T10:25:35.820Z,4.67
2017-12-28T10:28:02.661Z,5.00
2017-12-28T10:30:29.358Z,5.12
2017-12-28T10:32:55.337Z,4.05
2017-12-28T10:35:21.302Z,4.80
2017-12-28T10:37:47.384Z,4.00
2017-12-28T10:40:13.341Z,4.68
2017-12-28T10:42:39.297Z,4.90
2017-12-28T10:45:05.306Z,5.22
2017-12-28T10:47:31.259Z,5.28
2017-12-28T10:49:58.049Z,5.25
2017-12-28T10:52:24.038Z,4.20
2017-12-28T10:54:50.004Z,3.80
2017-12-28T10:57:16.255Z,4.10
2017-12-28T10:59:42.223Z,2.90
2017-12-28T11:02:08.238Z,5.20
2017-12-28T11:04:34.234Z,5.60
2017-12-28T11:07:01.019Z,5.28
2017-12-28T11:09:27.022Z,4.90
2017-12-28T11:11:52.982Z,5.30
2017-12-28T11:14:18.973Z,5.57
2017-12-28T11:16:44.912Z,4.55
2017-12-28T11:19:11.010Z,5.00
2017-12-28T11:21:36.967Z,6.50
2017-12-28T11:24:02.936Z,4.55
2017-12-28T11:26:29.794Z,5.32
2017-12-28T11:28:55.809Z,4.68
2017-12-28T11:31:21.769Z,4.53
2017-12-28T11:33:47.783Z,4.40
2017-12-28T11:36:13.963Z,5.30
2017-12-28T11:38:39.976Z,4.75
2017-12-28T11:41:06.032Z,4.50
2017-12-28T11:43:32.154Z,4.30
2017-12-28T11:45:58.193Z,3.92
2017-12-28T11:48:24.317Z,3.53
2017-12-28T11:50:50.429Z,4.22
2017-12-28T11:53:16.471Z,4.70
2017-12-28T11:55:42.661Z,3.80
2017-12-28T11:58:09.591Z,3.87
2017-12-28T12:00:35.613Z,3.87
2017-12-28T12:03:02.384Z,4.07
2017-12-28T12:05:29.127Z,3.62
2017-12-28T12:07:55.146Z,3.40
2017-12-28T12:10:21.177Z,3.30
2017-12-28T12:12:47.385Z,3.47
2017-12-28T12:15:14.241Z,4.15
2017-12-28T12:17:40.459Z,4.28
2017-12-28T12:20:06.584Z,3.67
2017-12-28T12:22:32.606Z,3.20
2017-12-28T12:24:59.303Z,3.78
2017-12-28T12:27:25.411Z,3.83
2017-12-28T12:29:51.356Z,3.85
2017-12-28T12:32:17.312Z,4.28
2017-12-28T12:34:44.160Z,3.40
2017-12-28T12:37:10.842Z,3.92
2017-12-28T12:39:36.815Z,3.70
2017-12-28T12:42:03.501Z,3.58
2017-12-28T12:44:29.512Z,3.60
2017-12-28T12:46:55.505Z,3.47
2017-12-28T12:51:51.052Z,4.10
2017-12-28T12:54:19.194Z,4.28
2017-12-28T12:56:47.400Z,3.72
2017-12-28T12:59:15.577Z,3.37
2017-12-28T13:01:43.707Z,3.17
2017-12-28T13:04:12.736Z,3.60
2017-12-28T13:06:40.893Z,3.60
2017-12-28T13:09:09.117Z,3.30
2017-12-28T13:11:38.007Z,3.33
2017-12-28T13:14:06.155Z,4.20
2017-12-28T13:16:34.346Z,4.30
2017-12-28T13:19:03.301Z,3.20
2017-12-28T13:21:31.478Z,2.95
2017-12-28T13:23:59.633Z,3.55
2017-12-28T13:26:27.822Z,3.65
2017-12-28T13:28:56.150Z,3.80
2017-12-28T13:31:24.289Z,3.33
2017-12-28T13:33:52.470Z,4.37
2017-12-28T13:36:20.658Z,3.70
2017-12-28T13:38:48.819Z,3.03
2017-12-28T13:41:17.098Z,3.00
2017-12-28T13:43:45.235Z,3.75
2017-12-28T13:46:13.424Z,3.65
2017-12-28T13:48:41.571Z,3.42
2017-12-28T13:51:09.752Z,3.17
2017-12-28T13:53:37.885Z,3.40
2017-12-28T13:56:06.029Z,3.55
2017-12-28T13:58:34.360Z,3.55
2017-12-28T14:01:02.509Z,3.78
2017-12-28T14:03:31.611Z,3.20
2017-12-28T14:05:59.782Z,3.80
2017-12-28T14:08:27.941Z,3.70
2017-12-28T14:10:56.878Z,3.78
2017-12-28T14:13:25.022Z,3.50
2017-12-28T14:15:53.194Z,3.60
2017-12-28T14:18:22.087Z,3.62
2017-12-28T14:20:50.384Z,3.75
2017-12-28T14:23:18.542Z,3.87
2017-12-28T14:25:46.784Z,3.80
2017-12-28T14:28:14.956Z,3.35
2017-12-28T14:30:43.882Z,3.90
2017-12-28T14:33:12.012Z,3.70
2017-12-28T14:35:40.168Z,3.53
2017-12-28T14:38:08.327Z,3.95
2017-12-28T14:40:36.599Z,3.65
2017-12-28T14:43:04.746Z,3.40
2017-12-28T14:45:32.883Z,4.12
2017-12-28T14:48:01.051Z,3.83
2017-12-28T14:50:29.201Z,3.92
2017-12-28T14:52:57.550Z,4.15
2017-12-28T14:55:25.710Z,4.53
2017-12-28T14:57:54.634Z,4.00
2017-12-28T15:00:22.852Z,4.20
2017-12-28T15:02:51.021Z,4.37
2017-12-28T15:05:19.981Z,4.62
2017-12-28T15:07:48.218Z,4.57
2017-12-28T15:10:17.204Z,5.78
2017-12-28T15:12:46.167Z,4.55
2017-12-28T15:15:14.422Z,5.35
2017-12-28T15:17:42.618Z,4.60
2017-12-28T15:20:10.854Z,3.80
2017-12-28T15:22:39.028Z,4.60
2017-12-28T15:25:07.142Z,3.90
2017-12-28T15:27:35.430Z,4.10
2017-12-28T15:30:04.364Z,4.62
2017-12-28T15:32:32.505Z,5.07
2017-12-28T15:35:00.656Z,4.20
2017-12-28T15:37:28.975Z,4.43
2017-12-28T15:39:57.111Z,4.93
2017-12-28T15:42:33.077Z,5.25
2017-12-28T15:45:10.002Z,4.07
2017-12-28T15:47:45.928Z,6.28
2017-12-28T15:50:22.123Z,4.45
2017-12-28T15:52:58.036Z,4.57
2017-12-28T15:55:27.100Z,6.18
2017-12-28T15:57:56.546Z,5.50
2017-12-28T16:00:25.433Z,6.37
2017-12-28T16:02:53.600Z,5.50
2017-12-28T16:05:22.491Z,4.32
2017-12-28T16:07:50.757Z,5.32
2017-12-28T16:10:19.676Z,4.55
2017-12-28T16:12:47.868Z,5.10
2017-12-28T16:15:15.997Z,4.90
2017-12-28T16:17:44.908Z,5.05
2017-12-28T16:20:13.086Z,5.10
2017-12-28T16:22:41.206Z,5.05
2017-12-28T16:25:09.527Z,4.57
2017-12-28T16:27:37.703Z,5.15
2017-12-28T16:30:05.835Z,5.20
2017-12-28T16:32:33.991Z,5.30
2017-12-28T16:35:02.133Z,4.80
2017-12-28T16:37:30.361Z,4.50
2017-12-28T16:39:58.487Z,5.22
2017-12-28T16:42:26.788Z,5.15
2017-12-28T16:44:54.952Z,3.85
2017-12-28T16:47:23.080Z,4.30
2017-12-28T16:49:52.001Z,4.90
2017-12-28T16:52:20.127Z,4.50
2017-12-28T16:54:49.079Z,4.65
2017-12-28T16:57:17.201Z,4.30
2017-12-28T16:59:46.239Z,3.78
2017-12-28T17:08:20.778Z,3.92
2017-12-28T17:10:48.904Z,4.00
2017-12-28T17:13:17.076Z,4.07
2017-12-28T17:15:45.212Z,4.20
2017-12-28T17:18:13.360Z,4.70
2017-12-28T17:20:42.309Z,3.83
2017-12-28T17:23:10.476Z,4.18
2017-12-28T17:25:38.628Z,4.03
2017-12-28T17:28:06.812Z,4.35
2017-12-28T17:30:34.976Z,4.80
2017-12-28T17:33:03.109Z,5.07
2017-12-28T17:35:32.152Z,3.95
2017-12-28T17:38:00.320Z,4.60
2017-12-28T17:40:28.452Z,4.32
2017-12-28T17:42:57.384Z,4.10
2017-12-28T17:45:25.509Z,3.90
2017-12-28T17:47:54.443Z,4.22
2017-12-28T17:50:22.578Z,4.30
2017-12-28T17:52:51.491Z,3.80
2017-12-28T17:55:19.793Z,6.00
2017-12-28T17:57:47.972Z,4.80
2017-12-28T18:00:16.151Z,4.30
2017-12-28T18:02:44.280Z,4.43
2017-12-28T18:05:13.206Z,3.97
2017-12-28T18:07:41.361Z,5.28
2017-12-28T18:10:09.652Z,4.45
2017-12-28T18:12:37.808Z,4.25
2017-12-28T18:15:05.977Z,4.10
2017-12-28T18:17:34.104Z,3.87
2017-12-28T18:20:02.880Z,5.10
2017-12-28T18:22:31.054Z,4.65
2017-12-28T18:24:59.186Z,4.15
2017-12-28T18:27:27.529Z,4.50
2017-12-28T18:29:55.671Z,4.70
2017-12-28T18:32:23.840Z,5.53
2017-12-28T18:34:52.002Z,4.47
2017-12-28T18:37:20.181Z,4.18
2017-12-28T18:39:48.362Z,4.62
2017-12-28T18:42:16.497Z,4.45
2017-12-28T18:45:10.746Z,5.95
2017-12-28T18:47:44.076Z,5.18
2017-12-28T18:50:12.272Z,5.22
2017-12-28T18:52:40.415Z,5.28
2017-12-28T18:55:09.320Z,5.65
2017-12-28T18:57:39.610Z,5.47
2017-12-28T19:00:07.904Z,4.72
2017-12-28T19:02:36.851Z,4.75
2017-12-28T19:05:05.005Z,5.62
2017-12-28T19:07:33.157Z,4.47
2017-12-28T19:10:01.427Z,4.78
2017-12-28T19:12:30.338Z,4.50
2017-12-28T19:14:58.494Z,5.55
2017-12-28T19:17:27.016Z,4.40
2017-12-28T19:19:55.280Z,4.70
2017-12-28T19:22:23.469Z,5.22
2017-12-28T19:24:51.660Z,5.00
2017-12-28T19:27:19.848Z,5.47
2017-12-28T19:29:48.012Z,5.20
2017-12-28T19:32:16.164Z,5.22
2017-12-28T19:34:44.500Z,4.65
2017-12-28T19:37:12.686Z,4.20
2017-12-28T19:39:40.830Z,4.90
2017-12-28T19:42:09.807Z,4.62
2017-12-28T19:44:37.954Z,4.62
2017-12-28T19:47:06.059Z,4.45
2017-12-28T19:49:35.003Z,4.20
2017-12-28T19:52:03.136Z,4.68
2017-12-28T19:54:32.045Z,4.28
2017-12-28T19:57:00.356Z,5.20
2017-12-28T19:59:28.525Z,4.90
2017-12-28T20:01:56.672Z,4.50
2017-12-28T20:04:24.821Z,5.03
2017-12-28T20:06:53.774Z,4.60
2017-12-28T20:09:21.902Z,4.70
2017-12-28T20:11:50.064Z,4.15
2017-12-28T20:14:19.046Z,4.03
2017-12-28T20:16:47.152Z,4.20
2017-12-28T20:19:15.296Z,4.10
2017-12-28T20:21:44.270Z,5.35
2017-12-28T20:24:12.395Z,4.40
2017-12-28T20:26:40.530Z,4.35
2017-12-28T20:29:09.465Z,4.50
2017-12-28T20:31:37.613Z,4.20
2017-12-28T20:34:05.763Z,3.87
2017-12-28T20:36:34.048Z,4.72
2017-12-28T20:39:02.960Z,4.47
2017-12-28T20:41:31.131Z,3.87
2017-12-28T20:43:59.282Z,4.40
2017-12-28T20:46:27.412Z,4.78
2017-12-28T20:48:55.720Z,4.45
2017-12-28T20:54:52.538Z,4.20
2017-12-28T20:57:20.676Z,4.28
2017-12-28T20:59:49.630Z,4.80
2017-12-28T21:02:17.788Z,4.00
2017-12-28T21:04:48.525Z,5.40
2017-12-28T21:07:16.705Z,4.25
2017-12-28T21:09:44.836Z,5.28
2017-12-28T21:12:12.994Z,4.10
2017-12-28T21:14:41.922Z,5.18
2017-12-28T21:17:10.071Z,4.57
2017-12-28T21:19:38.226Z,5.65
2017-12-28T21:22:06.502Z,5.03
2017-12-28T21:24:34.708Z,4.32
2017-12-28T21:27:02.889Z,5.45
2017-12-28T21:29:31.024Z,4.85
2017-12-28T21:31:59.975Z,4.40
2017-12-28T21:34:28.100Z,5.05
2017-12-28T21:36:56.271Z,4.60
2017-12-28T21:39:24.467Z,5.22
2017-12-28T21:41:52.605Z,5.00
2017-12-28T21:44:21.508Z,5.03
2017-12-28T21:46:50.560Z,5.07
2017-12-28T21:49:18.700Z,5.43
2017-12-28T21:51:46.888Z,5.68
2017-12-28T21:54:15.024Z,6.43
2017-12-28T21:56:44.107Z,5.40
2017-12-28T21:59:13.033Z,5.10
2017-12-28T22:01:41.212Z,5.15
2017-12-28T22:04:10.103Z,4.18
2017-12-28T22:06:38.247Z,5.03
2017-12-28T22:09:07.202Z,4.65
2017-12-28T22:11:35.346Z,4.10
2017-12-28T22:14:03.494Z,5.57
2017-12-28T22:16:31.982Z,4.85
2017-12-28T22:19:00.109Z,5.15
2017-12-28T22:21:28.362Z,4.15
2017-12-28T22:23:56.492Z,4.28
2017-12-28T22:26:24.657Z,5.50
2017-12-28T22:28:52.811Z,4.78
2017-12-28T22:31:20.976Z,4.30
2017-12-28T22:33:49.268Z,3.80
2017-12-28T22:36:18.167Z,4.20
2017-12-28T22:38:47.077Z,3.92
2017-12-28T22:41:15.240Z,4.03
2017-12-28T22:43:43.388Z,4.95
2017-12-28T22:46:11.544Z,4.25
2017-12-28T22:48:39.664Z,5.40
2017-12-28T22:51:07.976Z,6.80
2017-12-28T22:53:36.115Z,9.60
2017-12-28T22:56:04.283Z,7.05
2017-12-28T22:58:33.219Z,4.22
2017-12-28T23:01:01.344Z,3.58
2017-12-28T23:03:30.277Z,5.07
2017-12-28T23:05:58.419Z,6.90
2017-12-28T23:08:26.704Z,4.47
2017-12-28T23:10:54.858Z,3.65
2017-12-28T23:13:23.783Z,4.40
2017-12-28T23:15:51.915Z,4.00
2017-12-28T23:18:20.816Z,3.25
2017-12-28T23:20:48.979Z,3.28
2017-12-28T23:23:17.134Z,3.65
2017-12-28T23:25:45.265Z,3.90
2017-12-28T23:28:13.546Z,3.92
2017-12-28T23:30:41.672Z,3.67
2017-12-28T23:33:10.713Z,3.00
2017-12-28T23:35:38.843Z,3.90
2017-12-28T23:38:07.764Z,3.15
2017-12-28T23:40:35.924Z,3.00
2017-12-28T23:43:04.045Z,3.50
2017-12-28T23:45:32.373Z,3.47
2017-12-28T23:48:01.255Z,3.50
2017-12-28T23:50:30.159Z,3.12
2017-12-28T23:52:58.346Z,3.40
2017-12-28T23:55:26.484Z,3.92
2017-12-28T23:57:55.427Z,3.72
